Observations for EDINBURGH AIRPORT, United Kingdom (EGPH)

EGPH 191320Z 23012KT 9999 FEW023 08/04 Q1011
EGPH 191250Z 23012KT 9999 FEW022 08/04 Q1011
EGPH 191220Z 23011KT 9999 FEW019 08/05 Q1011
EGPH 191150Z 24012KT 9999 FEW019 SCT039 08/05 Q1011 
EGPH 191120Z 24013KT 9999 SCT018 08/05 Q1011
EGPH 191050Z 25010KT 9999 SCT015 08/06 Q1011
EGPH 191020Z 23011KT 9999 FEW014 SCT034 08/06 Q1011 
EGPH 190950Z 25009KT 9999 FEW014 SCT027 08/06 Q1011 
EGPH 190920Z 24007KT 9999 SCT015 07/06 Q1010
EGPH 190850Z 23006KT 9999 VCSH FEW011 BKN039 06/05 Q1010
EGPH 190820Z 25004KT 9999 FEW018TCU SCT020 06/05 Q1010  
EGPH 190750Z 25005KT 9999 FEW018TCU SCT025 06/04 Q1010  
EGPH 190720Z 24006KT 210V280 9999 -RA SCT036 05/04 Q1009
EGPH 190650Z 25007KT CAVOK 04/03 Q1009  
EGPH 190620Z 22008KT CAVOK 04/03 Q1009  
EGPH 190550Z 25010KT 9999 FEW031 05/03 Q1009
EGPH 190520Z 25009KT CAVOK 04/03 Q1009  
EGPH 190450Z 24009KT CAVOK 04/03 Q1008  
EGPH 190420Z 24008KT CAVOK 04/03 Q1008  
EGPH 190350Z 24008KT 9999 FEW040 04/03 Q1008
EGPH 190320Z 25009KT 9999 BKN036 06/04 Q1008
EGPH 190250Z 25012KT 9999 FEW017 06/04 Q1007
EGPH 190220Z 25011KT 9999 BKN025 06/05 Q1007
EGPH 190150Z 25007KT 9999 BKN030 04/03 Q1007
EGPH 190120Z 24009KT 9999 FEW035 04/03 Q1007
EGPH 190050Z 23012KT CAVOK 05/04 Q1006  
EGPH 190020Z 25010KT 9999 FEW036 05/03 Q1006
EGPH 182350Z 24012KT 9999 FEW037 05/03 Q1005
EGPH 182320Z 24009KT CAVOK 05/03 Q1005  
EGPH 182250Z 25009KT CAVOK 06/04 Q1004  
EGPH 182220Z 25011KT CAVOK 06/05 Q1004  
EGPH 182150Z 24013KT 9999 FEW016 06/05 Q1004
EGPH 182120Z 24015KT 9999 FEW012 07/05 Q1003
EGPH 182050Z 25011KT 9999 FEW018 SCT032 07/06 Q1003 
EGPH 182020Z 24013KT 9999 -SHRA FEW014TCU SCT028 07/06 Q1003 RESHRA 
EGPH 181950Z 25011KT 9999 -SHRA FEW018TCU SCT026 07/05 Q1003 RESHRA 
EGPH 181920Z 24012KT 9999 FEW017 06/04 Q1003
EGPH 181850Z 24013KT 9999 FEW021 06/04 Q1002
EGPH 181820Z 24012KT 9999 FEW016 FEW026TCU 07/05 Q1002  
EGPH 181750Z 24015KT 9999 FEW017TCU SCT030 07/05 Q1002  
EGPH 181720Z 24021KT 9999 FEW020TCU 07/05 Q1001 
EGPH 181650Z 23020KT 9999 FEW019CB 07/05 Q1001  
EGPH 181620Z 24017KT 9999 FEW022TCU SCT035 07/05 Q1001 RESHRA   
EGPH 181550Z 24018KT 9999 -SHRA SCT024CB SCT030 07/05 Q1001 
EGPH 181520Z 23021KT 9999 VCSH SCT028TCU 08/04 Q1000
EGPH 181450Z 23022KT 9999 SCT028 09/04 Q1001
EGPH 181420Z 23023KT 9999 SCT027 09/04 Q1001
EGPH 181350Z 23023KT 9999 BKN025 09/04 Q1001
EGPH 181320Z 22024KT 9999 VCSH SCT022 09/04 Q1001   
EGPH 181250Z 22024KT 9999 SCT020 09/04 Q1001